Time;durP1;ratioP1;P1;durP2;ratioP2;P2;SDS_P1;SDS_P2;PMS_P1;PMS_P2;Temp;Humidity;BMP_temperature;BMP_pressure;BME280_temperature;BME280_humidity;BME280_pressure;Samples;Min_cycle;Max_cycle;Signal;HPM_P1;HPM_P2
2023/07/15 00:02:26;;;;;;;5.10;4.10;;;;;;;17.29;71.65;96786.89;108053;1282;24631;-71
2023/07/15 00:04:57;;;;;;;6.90;4.30;;;;;;;17.32;71.66;96782.81;108105;1280;22532;-71
2023/07/15 00:07:30;;;;;;;4.70;4.10;;;;;;;17.36;71.72;96782.21;108088;1282;22545;-71
2023/07/15 00:10:02;;;;;;;4.90;4.00;;;;;;;17.40;71.67;96779.01;108092;1282;22542;-71
2023/07/15 00:12:38;;;;;;;6.50;3.70;;;;;;;17.44;71.58;96779.56;108105;1282;25433;-71
2023/07/15 00:15:13;;;;;;;5.20;3.80;;;;;;;17.47;71.53;96782.35;108076;1282;22521;-72
2023/07/15 00:17:44;;;;;;;5.30;3.70;;;;;;;17.53;71.52;96781.52;108035;1276;22558;-71
2023/07/15 00:20:18;;;;;;;5.60;4.00;;;;;;;17.59;71.38;96777.93;108048;1282;25332;-71
2023/07/15 00:22:50;;;;;;;4.40;3.80;;;;;;;17.64;71.23;96779.67;108068;1282;25428;-71
2023/07/15 00:25:23;;;;;;;5.70;3.90;;;;;;;17.67;71.12;96787.32;107963;1282;25448;-71
2023/07/15 00:27:58;;;;;;;5.40;3.80;;;;;;;17.71;71.06;96788.81;107876;1274;22582;-71
2023/07/15 00:30:31;;;;;;;5.50;4.10;;;;;;;17.76;70.98;96785.41;107928;1282;22557;-71
2023/07/15 00:33:02;;;;;;;7.10;4.40;;;;;;;17.76;70.90;96782.13;107934;1282;22532;-71
2023/07/15 00:35:36;;;;;;;4.80;4.20;;;;;;;17.74;70.92;96782.20;107938;1277;24231;-71
2023/07/15 00:38:10;;;;;;;6.10;4.50;;;;;;;17.70;70.82;96782.27;107934;1280;22559;-71
2023/07/15 00:40:45;;;;;;;6.10;4.30;;;;;;;17.67;70.79;96782.53;107928;1276;25432;-71
2023/07/15 00:43:51;;;;;;;5.90;4.70;;;;;;;17.60;70.91;96779.04;107965;1282;22957;-71
2023/07/15 00:46:46;;;;;;;5.70;4.80;;;;;;;17.53;71.04;96780.80;107912;1277;25409;-71
2023/07/15 00:49:22;;;;;;;6.90;5.20;;;;;;;17.44;71.14;96780.52;107946;1282;22591;-71
2023/07/15 00:52:09;;;;;;;7.20;5.10;;;;;;;17.38;71.33;96780.71;108012;1279;22632;-71
2023/07/15 00:54:45;;;;;;;6.90;4.60;;;;;;;17.36;71.44;96780.10;107907;1282;22554;-71
2023/07/15 00:57:17;;;;;;;7.10;4.80;;;;;;;17.35;71.54;96776.35;107904;1282;22531;-72
2023/07/15 00:59:53;;;;;;;6.00;4.70;;;;;;;17.34;71.62;96777.70;107935;1275;22923;-71
2023/07/15 01:02:25;;;;;;;6.20;4.90;;;;;;;17.32;71.81;96776.31;107960;1282;22568;-71
2023/07/15 01:04:56;;;;;;;6.00;5.10;;;;;;;17.30;71.78;96771.23;107904;1280;22534;-71
2023/07/15 01:07:28;;;;;;;6.80;4.60;;;;;;;17.30;71.89;96772.30;107936;1282;22537;-71
2023/07/15 01:09:59;;;;;;;6.50;3.80;;;;;;;17.31;71.86;96770.29;107975;1282;22531;-71
2023/07/15 01:12:35;;;;;;;5.40;3.90;;;;;;;17.35;71.82;96762.13;107916;1282;22536;-71
2023/07/15 01:15:10;;;;;;;4.80;3.80;;;;;;;17.40;71.68;96757.60;107931;1279;22547;-72
2023/07/15 01:17:42;;;;;;;5.10;3.80;;;;;;;17.49;71.59;96762.41;107924;1282;25411;-71
2023/07/15 01:20:16;;;;;;;4.80;3.80;;;;;;;17.55;71.44;96760.13;107948;1282;22548;-71
2023/07/15 01:22:49;;;;;;;5.20;3.90;;;;;;;17.59;71.34;96755.00;107960;1274;22554;-71
2023/07/15 01:25:22;;;;;;;5.60;3.60;;;;;;;17.62;71.36;96757.00;107940;1282;22543;-72
2023/07/15 01:27:53;;;;;;;4.30;3.50;;;;;;;17.63;71.32;96757.47;108099;1282;22559;-71
2023/07/15 01:30:24;;;;;;;5.70;3.80;;;;;;;17.63;71.26;96754.57;108086;1282;22521;-71
2023/07/15 01:32:55;;;;;;;7.20;4.10;;;;;;;17.62;71.16;96754.00;108066;1264;25446;-72
2023/07/15 01:35:26;;;;;;;5.20;3.70;;;;;;;17.62;71.24;96752.67;108098;1282;22589;-72
2023/07/15 01:37:57;;;;;;;4.30;3.60;;;;;;;17.62;71.30;96756.43;108093;1282;22777;-73
2023/07/15 01:40:28;;;;;;;5.90;4.00;;;;;;;17.60;71.42;96750.38;108074;1280;23868;-72
2023/07/15 01:42:59;;;;;;;4.80;3.80;;;;;;;17.56;71.47;96753.12;108076;1277;22544;-72
2023/07/15 01:45:33;;;;;;;6.20;4.00;;;;;;;17.54;71.36;96754.25;108083;1282;22538;-72
2023/07/15 01:48:05;;;;;;;4.50;3.40;;;;;;;17.49;71.52;96749.70;108120;1274;22665;-71
2023/07/15 01:50:39;;;;;;;4.60;3.40;;;;;;;17.43;71.48;96744.27;108057;1282;22540;-71
2023/07/15 01:53:10;;;;;;;5.10;3.60;;;;;;;17.37;71.61;96741.59;108089;1282;24160;-71
2023/07/15 01:55:44;;;;;;;4.80;3.70;;;;;;;17.34;71.72;96743.00;108106;1282;22531;-71
2023/07/15 01:58:16;;;;;;;4.50;3.70;;;;;;;17.30;71.83;96737.30;108093;1282;22536;-71
2023/07/15 02:00:51;;;;;;;5.60;3.90;;;;;;;17.27;71.91;96737.04;108066;1277;25400;-71
2023/07/15 02:03:26;;;;;;;4.40;4.00;;;;;;;17.28;71.95;96738.83;108044;1280;22537;-71
2023/07/15 02:05:58;;;;;;;4.60;3.90;;;;;;;17.29;72.03;96737.81;108077;1274;22675;-71
2023/07/15 02:08:29;;;;;;;4.40;3.70;;;;;;;17.31;72.01;96739.58;108061;1282;22543;-71
2023/07/15 02:11:00;;;;;;;5.60;4.00;;;;;;;17.33;72.11;96740.51;108057;1282;22536;-71
2023/07/15 02:13:31;;;;;;;4.10;3.60;;;;;;;17.33;72.23;96743.44;108056;1282;22552;-71
2023/07/15 02:16:02;;;;;;;4.10;3.30;;;;;;;17.31;72.22;96744.56;108087;1282;22806;-71
2023/07/15 02:18:34;;;;;;;4.30;3.30;;;;;;;17.30;72.25;96743.36;108084;1276;22609;-71
2023/07/15 02:21:05;;;;;;;4.40;4.00;;;;;;;17.26;72.23;96739.49;108063;1282;22575;-72
2023/07/15 02:23:37;;;;;;;5.10;3.70;;;;;;;17.23;72.41;96741.77;108075;1277;24188;-71
2023/07/15 02:26:11;;;;;;;3.90;3.40;;;;;;;17.17;72.51;96741.75;108110;1282;22547;-71
2023/07/15 02:28:45;;;;;;;5.10;3.40;;;;;;;17.14;72.74;96739.38;108095;1282;22577;-71
2023/07/15 02:31:16;;;;;;;3.60;3.30;;;;;;;17.08;72.86;96740.85;108082;1282;22556;-71
2023/07/15 02:33:48;;;;;;;4.00;3.30;;;;;;;17.02;73.01;96743.46;108072;1280;22537;-71
2023/07/15 02:36:19;;;;;;;5.50;3.50;;;;;;;16.97;73.34;96749.58;108127;1277;22556;-71
2023/07/15 02:38:51;;;;;;;5.10;3.50;;;;;;;16.95;73.61;96753.17;108106;1277;22545;-71
2023/07/15 02:41:24;;;;;;;5.10;3.90;;;;;;;16.88;73.58;96757.92;108103;1282;22535;-71
2023/07/15 02:43:55;;;;;;;7.10;3.80;;;;;;;16.82;73.77;96758.48;108098;1280;22535;-71
2023/07/15 02:46:26;;;;;;;4.90;4.20;;;;;;;16.84;73.94;96761.57;108090;1276;22540;-71
2023/07/15 02:49:01;;;;;;;5.40;4.60;;;;;;;16.86;74.08;96764.88;108056;1277;22548;-71
2023/07/15 02:51:33;;;;;;;7.00;4.70;;;;;;;16.87;74.05;96761.32;108063;1281;22558;-72
2023/07/15 02:54:06;;;;;;;6.90;4.80;;;;;;;16.85;74.09;96764.43;108107;1282;22549;-71
2023/07/15 02:56:38;;;;;;;7.40;5.00;;;;;;;16.84;74.21;96769.08;108093;1274;26450;-72
2023/07/15 02:59:09;;;;;;;6.00;5.00;;;;;;;16.85;74.38;96773.06;108134;1282;24225;-71
2023/07/15 03:01:42;;;;;;;7.00;5.10;;;;;;;16.82;74.35;96772.83;107928;1277;22633;-72
2023/07/15 03:04:14;;;;;;;5.20;4.70;;;;;;;16.80;74.44;96775.18;107911;1282;25249;-71
2023/07/15 03:06:47;;;;;;;5.90;4.70;;;;;;;16.80;74.55;96778.14;107928;1282;22531;-71
2023/07/15 03:09:18;;;;;;;7.20;5.30;;;;;;;16.79;74.55;96778.23;107924;1282;22538;-71
2023/07/15 03:11:52;;;;;;;5.90;4.60;;;;;;;16.78;74.68;96780.03;107954;1282;22560;-72
2023/07/15 03:14:24;;;;;;;6.00;4.60;;;;;;;16.78;74.90;96782.74;107950;1282;25472;-71
2023/07/15 03:16:55;;;;;;;6.70;4.80;;;;;;;16.78;74.87;96782.65;107947;1279;24258;-71
2023/07/15 03:19:26;;;;;;;7.20;5.00;;;;;;;16.77;75.10;96780.54;107932;1282;25257;-72
2023/07/15 03:21:58;;;;;;;5.70;5.10;;;;;;;16.76;75.10;96780.14;107931;1282;25352;-71
2023/07/15 03:24:30;;;;;;;6.90;4.70;;;;;;;16.76;75.17;96781.17;107964;1282;22551;-72
2023/07/15 03:27:02;;;;;;;6.20;4.60;;;;;;;16.74;75.13;96785.11;107968;1282;23003;-71
2023/07/15 03:29:33;;;;;;;5.80;4.90;;;;;;;16.73;75.34;96783.54;107930;1282;22527;-71
2023/07/15 03:32:04;;;;;;;5.00;4.10;;;;;;;16.70;75.36;96785.12;107924;1282;24600;-71
2023/07/15 03:34:35;;;;;;;6.00;4.70;;;;;;;16.69;75.63;96781.99;107945;1282;25565;-72
2023/07/15 03:37:08;;;;;;;5.20;4.50;;;;;;;16.70;75.72;96784.99;108060;1282;24248;-71
2023/07/15 03:39:39;;;;;;;8.90;5.10;;;;;;;16.70;75.62;96780.05;107951;1282;23879;-71
2023/07/15 03:42:12;;;;;;;6.20;4.00;;;;;;;16.73;75.54;96783.45;107929;1282;24177;-71
2023/07/15 03:44:43;;;;;;;5.60;4.10;;;;;;;16.74;75.48;96780.67;107936;1277;25459;-71
2023/07/15 03:47:14;;;;;;;6.30;4.50;;;;;;;16.74;75.55;96780.92;107921;1282;22591;-71
2023/07/15 03:49:47;;;;;;;5.40;4.30;;;;;;;16.75;75.64;96780.43;107966;1274;22631;-71
2023/07/15 03:52:18;;;;;;;8.40;4.80;;;;;;;16.75;75.57;96779.46;107938;1275;23023;-71
2023/07/15 03:54:49;;;;;;;6.60;4.50;;;;;;;16.76;75.62;96778.27;107936;1277;22549;-72
2023/07/15 03:57:21;;;;;;;5.80;4.60;;;;;;;16.80;75.87;96779.82;107950;1282;22527;-72
2023/07/15 03:59:52;;;;;;;5.30;4.80;;;;;;;16.84;75.84;96777.86;107933;1282;22553;-71
2023/07/15 04:02:27;;;;;;;10.10;5.00;;;;;;;16.89;75.94;96778.55;107921;1274;25352;-71
2023/07/15 04:05:03;;;;;;;7.40;4.60;;;;;;;16.96;76.01;96782.70;107952;1282;22608;-71
2023/07/15 04:07:34;;;;;;;7.00;4.90;;;;;;;17.03;76.16;96777.92;107956;1280;22527;-71
2023/07/15 04:10:06;;;;;;;4.30;3.90;;;;;;;17.11;76.07;96776.77;107949;1282;22938;-71
2023/07/15 04:12:38;;;;;;;5.50;4.50;;;;;;;17.21;75.87;96774.91;107981;1282;25377;-72
2023/07/15 04:15:13;;;;;;;5.50;4.50;;;;;;;17.30;75.87;96776.67;107947;1282;22554;-71
2023/07/15 04:17:44;;;;;;;6.20;4.30;;;;;;;17.39;75.79;96778.91;108000;1280;25272;-72
2023/07/15 04:20:17;;;;;;;5.40;4.60;;;;;;;17.48;75.59;96783.45;107937;1279;24194;-72
2023/07/15 04:22:48;;;;;;;6.60;4.10;;;;;;;17.59;75.58;96785.48;107950;1282;22528;-71
2023/07/15 04:25:19;;;;;;;6.40;4.20;;;;;;;17.66;75.38;96789.67;107945;1282;24233;-71
2023/07/15 04:27:50;;;;;;;5.60;4.70;;;;;;;17.74;75.20;96787.08;107985;1275;25229;-71
2023/07/15 04:30:21;;;;;;;6.40;4.30;;;;;;;17.81;75.17;96791.83;107960;1274;25435;-71
2023/07/15 04:32:52;;;;;;;7.00;4.50;;;;;;;17.87;74.99;96793.83;107918;1279;22531;-72
2023/07/15 04:35:23;;;;;;;7.00;4.20;;;;;;;17.95;74.94;96796.29;107924;1282;22581;-71
2023/07/15 04:37:54;;;;;;;4.60;4.10;;;;;;;18.03;74.92;96793.97;107940;1282;22527;-72
2023/07/15 04:40:26;;;;;;;4.90;4.20;;;;;;;18.11;74.63;96795.95;107941;1282;22814;-71
2023/07/15 04:42:59;;;;;;;4.50;4.00;;;;;;;18.20;74.69;96790.88;107910;1282;22525;-72
2023/07/15 04:45:32;;;;;;;4.60;4.20;;;;;;;18.28;74.34;96786.84;107838;1275;138086;-71
2023/07/15 04:48:04;;;;;;;6.90;4.10;;;;;;;18.38;74.32;96784.52;107957;1274;22544;-71
2023/07/15 04:50:36;;;;;;;6.50;4.10;;;;;;;18.45;74.06;96783.27;107901;1279;22583;-71
2023/07/15 04:53:10;;;;;;;4.80;4.30;;;;;;;18.52;73.94;96785.40;107976;1282;25416;-71
2023/07/15 04:55:44;;;;;;;5.50;4.30;;;;;;;18.58;73.79;96784.64;108103;1279;22555;-71
2023/07/15 04:58:18;;;;;;;5.40;3.90;;;;;;;18.65;73.48;96786.45;108007;1282;22956;-72
2023/07/15 05:00:49;;;;;;;5.10;4.30;;;;;;;18.73;73.32;96787.36;107990;1275;24268;-71
2023/07/15 05:03:23;;;;;;;4.70;4.10;;;;;;;18.81;72.97;96789.20;107941;1274;22546;-72
2023/07/15 05:05:54;;;;;;;5.70;4.00;;;;;;;18.90;72.90;96788.73;107932;1282;22541;-72
2023/07/15 05:08:27;;;;;;;6.10;4.20;;;;;;;19.01;72.63;96790.58;107941;1282;22554;-72
2023/07/15 05:10:59;;;;;;;5.50;4.30;;;;;;;19.15;72.81;96788.92;107937;1282;22537;-71
2023/07/15 05:13:31;;;;;;;5.50;4.40;;;;;;;19.37;72.98;96790.50;107940;1282;22677;-71
2023/07/15 05:16:04;;;;;;;6.50;4.20;;;;;;;19.65;72.71;96789.23;107759;1282;22531;-72
2023/07/15 05:18:38;;;;;;;7.00;4.40;;;;;;;20.24;73.43;96787.13;107743;1275;22610;-72
2023/07/15 05:21:11;;;;;;;6.50;4.20;;;;;;;21.32;72.84;96791.27;107736;1275;24891;-73
2023/07/15 05:23:47;;;;;;;5.00;3.70;;;;;;;22.36;71.57;96785.41;107764;1274;22715;-73
2023/07/15 05:26:19;;;;;;;4.20;3.40;;;;;;;23.27;69.86;96786.05;107907;1274;22534;-73
2023/07/15 05:28:50;;;;;;;6.80;3.80;;;;;;;24.07;67.98;96787.95;108034;1282;24262;-72
2023/07/15 05:31:21;;;;;;;6.10;3.80;;;;;;;24.64;66.01;96788.42;108087;1274;22544;-73
2023/07/15 05:33:55;;;;;;;6.30;3.40;;;;;;;25.05;64.50;96793.73;107988;1274;22605;-73
2023/07/15 05:36:26;;;;;;;5.50;3.60;;;;;;;25.40;63.18;96795.42;107952;1274;22592;-73
2023/07/15 05:38:57;;;;;;;3.70;3.30;;;;;;;25.78;61.82;96796.71;107939;1282;22576;-74
2023/07/15 05:41:29;;;;;;;5.10;3.80;;;;;;;26.09;60.86;96804.23;107922;1281;25373;-73
2023/07/15 05:44:00;;;;;;;5.10;3.60;;;;;;;26.33;59.83;96799.48;107957;1282;22626;-74
2023/07/15 05:46:34;;;;;;;7.70;3.70;;;;;;;26.39;58.42;96802.13;107950;1274;25489;-73
2023/07/15 05:49:06;;;;;;;3.80;3.40;;;;;;;26.41;57.96;96798.41;107969;1282;25359;-73
2023/07/15 05:51:38;;;;;;;3.70;3.30;;;;;;;26.59;57.38;96798.46;107931;1281;22527;-73
2023/07/15 05:54:10;;;;;;;4.80;3.00;;;;;;;26.76;56.78;96795.94;107964;1282;22645;-73
2023/07/15 05:56:41;;;;;;;4.40;3.10;;;;;;;26.80;56.03;96790.75;107933;1282;22540;-74
2023/07/15 05:59:16;;;;;;;5.40;3.10;;;;;;;26.99;55.70;96789.40;108034;1282;25248;-75
2023/07/15 06:01:55;;;;;;;4.00;3.20;;;;;;;27.31;55.51;96785.84;108019;1267;24412;-76
2023/07/15 06:04:25;;;;;;;;;;;;;;;27.43;54.80;96785.63;107926;1282;22553;-75
2023/07/15 06:06:57;;;;;;;5.50;3.60;;;;;;;27.53;54.72;96786.92;107821;1270;25210;-75
2023/07/15 06:09:29;;;;;;;6.10;3.30;;;;;;;27.75;54.37;96787.95;107758;1282;22687;-75
2023/07/15 06:12:00;;;;;;;4.70;3.30;;;;;;;27.90;53.70;96790.54;107902;1282;22543;-75
2023/07/15 06:14:32;;;;;;;4.90;3.30;;;;;;;28.12;53.45;96789.09;107944;1274;22535;-75
2023/07/15 06:17:03;;;;;;;5.60;3.60;;;;;;;28.59;53.61;96790.21;107930;1275;22536;-75
2023/07/15 06:19:35;;;;;;;4.00;3.10;;;;;;;29.22;53.12;96789.70;107973;1282;22528;-75
2023/07/15 06:22:09;;;;;;;6.40;3.80;;;;;;;29.66;52.72;96788.67;107850;1274;22570;-75
2023/07/15 06:24:41;;;;;;;6.30;3.90;;;;;;;30.13;51.83;96786.52;108250;1282;26242;-75
2023/07/15 06:27:13;;;;;;;4.60;3.20;;;;;;;30.01;50.51;96788.61;108031;1277;22529;-75
2023/07/15 06:29:47;;;;;;;5.90;3.60;;;;;;;29.84;50.28;96792.31;107991;1282;24348;-74
2023/07/15 06:32:21;;;;;;;5.90;3.40;;;;;;;29.79;50.33;96787.12;108044;1282;22563;-74
2023/07/15 06:34:52;;;;;;;3.80;3.40;;;;;;;29.86;50.16;96785.52;107953;1280;22595;-75
2023/07/15 06:37:24;;;;;;;9.50;3.50;;;;;;;29.83;49.68;96785.92;108070;1275;22555;-75
2023/07/15 06:39:56;;;;;;;4.40;2.90;;;;;;;29.66;49.44;96781.27;108087;1282;22589;-75
2023/07/15 06:42:29;;;;;;;2.90;2.60;;;;;;;29.65;49.33;96782.90;108071;1282;22533;-75
2023/07/15 06:45:01;;;;;;;3.40;3.00;;;;;;;29.67;49.03;96779.77;108079;1279;22761;-75
2023/07/15 06:47:32;;;;;;;5.20;3.30;;;;;;;29.70;49.19;96779.75;108084;1276;22583;-74
2023/07/15 06:50:07;;;;;;;4.30;3.10;;;;;;;29.78;48.94;96782.52;108069;1274;22570;-74
2023/07/15 06:55:27;;;;;;;4.70;3.10;;;;;;;29.89;48.52;96779.40;108048;1282;25302;-75
2023/07/15 06:58:02;;;;;;;3.30;3.00;;;;;;;29.94;48.26;96782.17;108092;1275;22551;-74
2023/07/15 07:00:35;;;;;;;3.10;2.80;;;;;;;30.03;48.07;96780.41;108091;1277;23814;-74
2023/07/15 07:03:06;;;;;;;3.60;3.00;;;;;;;30.11;47.69;96784.13;108074;1282;26467;-74
2023/07/15 07:05:41;;;;;;;3.00;2.70;;;;;;;30.21;47.48;96779.75;108059;1282;27597;-74
2023/07/15 07:08:21;;;;;;;3.70;3.10;;;;;;;30.30;47.30;96778.42;108074;1277;25466;-74
2023/07/15 07:10:57;;;;;;;3.80;3.00;;;;;;;30.33;47.09;96779.10;108054;1280;25448;-74
2023/07/15 07:13:29;;;;;;;3.20;2.70;;;;;;;30.48;47.40;96777.57;108052;1282;22624;-75
2023/07/15 07:16:01;;;;;;;3.30;2.70;;;;;;;30.59;46.78;96776.08;108078;1276;24398;-74
2023/07/15 07:18:36;;;;;;;4.70;2.60;;;;;;;30.67;46.65;96778.91;108060;1282;22527;-74
2023/07/15 07:21:08;;;;;;;3.90;2.90;;;;;;;30.76;46.13;96779.13;108079;1278;22528;-74
2023/07/15 07:23:41;;;;;;;3.40;2.80;;;;;;;30.97;46.15;96781.42;108050;1277;23532;-74
2023/07/15 07:26:15;;;;;;;3.30;2.90;;;;;;;31.15;45.43;96783.18;107988;1280;22621;-74
2023/07/15 07:28:47;;;;;;;3.70;2.90;;;;;;;31.33;45.03;96782.20;107980;1282;22571;-74
2023/07/15 07:31:18;;;;;;;3.80;2.80;;;;;;;31.49;44.76;96780.83;107901;1275;22535;-75
2023/07/15 07:33:49;;;;;;;3.50;2.50;;;;;;;31.60;44.45;96784.13;107886;1278;22537;-75
2023/07/15 07:36:22;;;;;;;4.60;2.80;;;;;;;31.61;44.34;96782.31;107884;1279;22535;-75
2023/07/15 07:38:53;;;;;;;2.90;2.50;;;;;;;31.66;44.11;96782.86;107934;1274;22537;-75
2023/07/15 07:41:24;;;;;;;3.80;2.70;;;;;;;31.63;43.89;96782.59;107957;1280;22532;-75
2023/07/15 07:43:55;;;;;;;5.20;3.00;;;;;;;31.57;44.12;96783.78;107962;1282;22593;-76
2023/07/15 07:46:27;;;;;;;3.20;2.50;;;;;;;31.56;43.47;96785.05;107916;1282;24235;-75
2023/07/15 07:48:58;;;;;;;4.70;2.60;;;;;;;31.60;43.61;96783.98;107936;1282;22551;-75
2023/07/15 07:51:29;;;;;;;2.60;2.40;;;;;;;31.65;43.06;96782.96;107889;1279;24027;-75
2023/07/15 07:54:00;;;;;;;3.40;3.00;;;;;;;31.47;42.92;96785.95;107906;1282;22569;-75
2023/07/15 07:56:32;;;;;;;3.40;2.90;;;;;;;31.44;43.45;96786.63;107933;1282;22581;-75
2023/07/15 07:59:04;;;;;;;4.70;2.60;;;;;;;31.51;42.77;96784.48;107866;1277;24503;-75
2023/07/15 08:01:40;;;;;;;3.90;2.30;;;;;;;31.45;42.41;96788.58;107881;1281;22524;-75
2023/07/15 08:04:11;;;;;;;4.70;2.70;;;;;;;31.56;42.61;96786.48;107922;1282;22751;-75
2023/07/15 08:06:42;;;;;;;3.30;2.30;;;;;;;31.57;42.74;96788.02;107906;1274;22534;-75
2023/07/15 08:09:13;;;;;;;2.60;2.40;;;;;;;31.58;42.02;96783.92;107958;1282;22551;-75
2023/07/15 08:11:47;;;;;;;4.40;2.70;;;;;;;31.40;42.05;96782.59;107920;1281;22897;-75
2023/07/15 08:14:22;;;;;;;2.30;2.10;;;;;;;31.33;42.01;96785.73;107934;1282;24230;-74
2023/07/15 08:16:53;;;;;;;3.00;2.70;;;;;;;31.47;42.09;96783.44;107800;1280;22595;-74
2023/07/15 08:19:26;;;;;;;4.10;2.70;;;;;;;31.57;41.77;96788.64;107944;1282;24875;-75
2023/07/15 08:22:00;;;;;;;3.00;2.70;;;;;;;31.65;42.15;96782.66;107665;1274;22564;-74
2023/07/15 08:24:31;;;;;;;5.20;3.00;;;;;;;31.82;41.79;96779.63;107922;1277;22527;-74
2023/07/15 08:27:03;;;;;;;2.50;2.10;;;;;;;31.93;41.75;96781.11;107947;1282;22991;-72
2023/07/15 08:29:34;;;;;;;4.80;2.30;;;;;;;31.62;40.70;96781.44;107972;1282;25431;-72
2023/07/15 08:32:07;;;;;;;3.00;2.30;;;;;;;30.93;40.68;96779.44;107911;1282;25448;-73
2023/07/15 08:34:56;;;;;;;4.20;2.20;;;;;;;30.48;41.09;96785.46;107975;1278;25518;-71
2023/07/15 08:37:33;;;;;;;3.10;2.80;;;;;;;30.32;41.43;96786.23;107957;1282;22523;-73
2023/07/15 08:40:09;;;;;;;4.10;2.50;;;;;;;30.25;41.47;96782.98;107932;1282;24450;-73
2023/07/15 08:42:41;;;;;;;3.20;2.40;;;;;;;30.27;41.92;96787.05;107971;1274;24273;-72
2023/07/15 08:45:17;;;;;;;2.50;2.30;;;;;;;30.40;42.05;96786.70;107827;1282;24232;-72
2023/07/15 08:47:49;;;;;;;4.50;2.40;;;;;;;30.51;41.87;96788.56;107916;1282;22705;-71
2023/07/15 08:50:20;;;;;;;2.70;2.30;;;;;;;30.48;41.58;96786.79;107924;1275;22721;-72
2023/07/15 08:52:57;;;;;;;3.30;2.70;;;;;;;30.51;41.63;96789.97;107884;1275;24241;-72
2023/07/15 08:55:31;;;;;;;3.50;2.50;;;;;;;30.33;41.22;96790.12;108020;1274;22527;-73
2023/07/15 08:58:14;;;;;;;4.90;2.40;;;;;;;30.16;41.41;96789.55;108005;1279;22655;-73
2023/07/15 09:00:45;;;;;;;3.10;2.50;;;;;;;29.92;41.58;96786.95;108253;1274;22557;-73
2023/07/15 09:03:17;;;;;;;3.70;2.50;;;;;;;29.76;41.82;96782.21;107901;1270;25471;-73
2023/07/15 09:05:49;;;;;;;4.80;2.50;;;;;;;29.62;41.71;96775.42;108015;1282;23823;-72
2023/07/15 09:08:20;;;;;;;2.90;2.40;;;;;;;29.38;42.01;96775.44;108051;1282;22552;-73
2023/07/15 09:10:59;;;;;;;2.90;2.20;;;;;;;29.04;41.80;96780.79;108043;1280;23306;-74
2023/07/15 09:13:34;;;;;;;2.60;2.40;;;;;;;28.80;41.96;96780.97;108035;1279;22492;-74
2023/07/15 09:16:09;;;;;;;3.20;2.90;;;;;;;28.72;42.23;96781.46;108124;1282;22527;-73
2023/07/15 09:18:44;;;;;;;3.80;2.70;;;;;;;28.53;42.37;96779.06;108033;1282;23216;-73
2023/07/15 09:21:17;;;;;;;4.00;2.80;;;;;;;28.33;42.57;96783.29;107988;1282;22604;-73
2023/07/15 09:23:49;;;;;;;4.00;3.00;;;;;;;28.27;42.94;96777.43;108066;1282;22547;-74
2023/07/15 09:26:27;;;;;;;3.00;2.70;;;;;;;28.18;43.18;96771.19;108002;1280;22549;-71
2023/07/15 09:29:05;;;;;;;2.60;2.30;;;;;;;28.18;43.74;96768.62;107941;1275;23090;-73
2023/07/15 09:31:41;;;;;;;3.10;2.40;;;;;;;28.15;43.54;96774.36;107869;1281;22560;-72
2023/07/15 09:34:13;;;;;;;2.50;2.30;;;;;;;28.04;42.87;96760.73;108238;1279;22532;-72
2023/07/15 09:36:45;;;;;;;3.80;2.40;;;;;;;27.91;42.93;96756.91;107992;1282;22539;-73
2023/07/15 09:39:19;;;;;;;3.10;2.30;;;;;;;27.67;42.93;96761.85;108049;1279;22536;-73
2023/07/15 09:42:03;;;;;;;3.00;2.50;;;;;;;27.61;43.32;96763.63;108211;1282;22550;-73
2023/07/15 09:44:43;;;;;;;3.10;2.20;;;;;;;27.67;43.66;96759.74;108057;1282;25524;-73
2023/07/15 09:47:15;;;;;;;3.90;2.40;;;;;;;27.68;43.55;96764.96;108004;1282;22599;-73
2023/07/15 09:49:47;;;;;;;2.90;2.00;;;;;;;27.64;43.33;96760.59;107960;1282;22531;-74
2023/07/15 09:52:19;;;;;;;2.50;2.30;;;;;;;27.64;43.19;96758.18;107952;1282;24285;-72
2023/07/15 09:54:53;;;;;;;3.70;2.50;;;;;;;27.68;43.44;96761.08;108045;1279;22527;-73
2023/07/15 09:57:25;;;;;;;2.70;2.50;;;;;;;27.70;43.39;96758.50;108046;1274;22528;-72
2023/07/15 09:59:58;;;;;;;3.50;2.60;;;;;;;27.72;43.57;96752.98;108070;1274;24446;-73
2023/07/15 10:02:42;;;;;;;3.10;2.40;;;;;;;27.76;43.83;96744.67;108060;1282;22528;-73
2023/07/15 10:05:15;;;;;;;2.50;2.30;;;;;;;27.78;43.83;96748.57;108045;1282;22580;-73
2023/07/15 10:07:47;;;;;;;4.00;2.50;;;;;;;27.73;44.23;96740.77;108013;1282;22578;-74
2023/07/15 10:10:23;;;;;;;2.80;2.40;;;;;;;27.77;44.20;96741.80;108036;1282;22616;-73
2023/07/15 10:12:56;;;;;;;4.90;2.60;;;;;;;27.78;44.72;96739.38;108103;1275;22539;-73
2023/07/15 10:15:31;;;;;;;2.90;2.50;;;;;;;27.81;44.54;96742.03;108023;1275;25380;-73
2023/07/15 10:18:14;;;;;;;3.10;2.70;;;;;;;27.80;43.98;96742.17;107752;1275;25401;-76
2023/07/15 10:20:56;;;;;;;3.90;2.70;;;;;;;27.80;44.24;96737.74;107783;1280;22575;-75
2023/07/15 10:23:30;;;;;;;4.60;2.60;;;;;;;27.75;43.92;96743.12;107886;1275;22527;-74
2023/07/15 10:26:07;;;;;;;3.60;2.70;;;;;;;27.71;43.93;96740.60;107872;1281;22588;-75
2023/07/15 10:28:44;;;;;;;6.80;2.80;;;;;;;27.68;43.64;96734.38;107790;1282;22595;-74
2023/07/15 10:31:24;;;;;;;3.70;2.80;;;;;;;27.61;44.01;96730.15;107877;1282;24312;-75
2023/07/15 10:34:00;;;;;;;2.90;2.40;;;;;;;27.63;44.51;96733.27;107834;1282;22530;-75
2023/07/15 10:36:47;;;;;;;3.40;2.30;;;;;;;27.62;44.25;96729.38;107838;1282;23255;-75
2023/07/15 10:39:22;;;;;;;3.20;2.40;;;;;;;27.56;44.15;96731.98;108292;1282;22527;-75
2023/07/15 10:41:54;;;;;;;5.00;2.60;;;;;;;27.50;44.59;96726.23;108044;1282;22517;-75
2023/07/15 10:44:28;;;;;;;2.60;2.40;;;;;;;27.57;45.01;96727.16;108077;1282;22547;-75
2023/07/15 10:47:07;;;;;;;3.20;2.50;;;;;;;27.59;44.62;96728.58;108139;1279;22518;-75
2023/07/15 10:49:39;;;;;;;5.40;2.60;;;;;;;27.52;44.77;96729.96;108052;1277;23184;-75
2023/07/15 10:52:11;;;;;;;2.80;2.40;;;;;;;27.50;44.53;96727.39;108046;1282;54301;-75
2023/07/15 10:54:43;;;;;;;2.90;2.60;;;;;;;27.57;44.88;96728.25;108091;1282;22552;-75
2023/07/15 10:57:16;;;;;;;5.30;2.90;;;;;;;27.59;45.11;96722.35;108042;1282;23022;-75
2023/07/15 10:59:49;;;;;;;2.30;2.10;;;;;;;27.56;45.08;96721.71;108026;1282;25310;-75
2023/07/15 11:02:23;;;;;;;2.90;2.10;;;;;;;27.54;44.37;96721.40;108027;1280;23957;-74
2023/07/15 11:04:58;;;;;;;3.00;2.20;;;;;;;27.52;44.20;96722.18;108112;1282;26467;-74
2023/07/15 11:07:35;;;;;;;2.50;2.30;;;;;;;27.53;44.36;96720.86;108095;1282;22537;-74
2023/07/15 11:10:07;;;;;;;3.60;2.40;;;;;;;27.54;44.41;96717.66;108052;1277;23355;-74
2023/07/15 11:12:39;;;;;;;3.10;2.40;;;;;;;27.49;44.51;96717.82;108069;1282;22943;-74
2023/07/15 11:15:12;;;;;;;2.80;2.40;;;;;;;27.45;44.47;96713.69;108066;1282;22640;-74
2023/07/15 11:17:43;;;;;;;2.70;2.30;;;;;;;27.43;44.23;96715.30;108122;1280;25448;-74
2023/07/15 11:20:17;;;;;;;3.10;2.40;;;;;;;27.45;44.46;96708.41;108060;1282;25959;-74
2023/07/15 11:22:49;;;;;;;2.80;2.20;;;;;;;27.49;44.57;96700.86;108072;1282;25428;-74
2023/07/15 11:25:21;;;;;;;2.90;2.30;;;;;;;27.53;45.24;96699.85;108052;1279;22537;-74
2023/07/15 11:27:53;;;;;;;2.70;2.20;;;;;;;27.50;44.82;96697.29;108084;1275;22640;-74
2023/07/15 11:30:25;;;;;;;2.70;2.10;;;;;;;27.45;44.38;96694.01;108182;1282;23286;-75
2023/07/15 11:32:58;;;;;;;3.80;2.20;;;;;;;27.41;44.06;96687.30;108040;1282;22530;-73
2023/07/15 11:35:36;;;;;;;2.20;2.00;;;;;;;27.42;43.66;96683.80;108045;1276;22614;-75
2023/07/15 11:38:15;;;;;;;2.90;1.80;;;;;;;27.51;44.14;96689.42;108082;1275;22520;-75
2023/07/15 11:40:56;;;;;;;2.30;1.80;;;;;;;27.56;43.38;96688.33;108020;1279;25334;-75
2023/07/15 11:43:30;;;;;;;2.80;2.10;;;;;;;27.55;43.29;96676.66;107999;1282;22538;-75
2023/07/15 11:46:03;;;;;;;4.00;2.30;;;;;;;27.58;43.25;96676.98;107957;1282;22628;-75
2023/07/15 11:48:35;;;;;;;2.10;1.90;;;;;;;27.65;43.58;96674.67;107970;1282;25297;-75
2023/07/15 11:51:10;;;;;;;2.50;2.00;;;;;;;27.73;43.33;96671.89;107913;1275;22588;-75
2023/07/15 11:53:45;;;;;;;2.50;2.00;;;;;;;27.81;43.49;96670.34;107943;1282;22534;-75
2023/07/15 11:56:33;;;;;;;2.90;1.80;;;;;;;27.79;43.12;96667.14;107959;1282;22528;-75